Adams City, Colorado
Current Conditions -  °F | °C
As of 12:53 AM on Sunday 26 Oct 2014 (Local Time) from KDEN Reporting Station
Clear Clear  
Wind Chill: 56°   Ceiling: Unl
Heat Index: 56°   Visibility: 10mi
Dew Point: 23°   Wind: 12mph
Humidity: 28%   Direction: 230°SW
Pressure: 29.96"   Gusts: NA
Location:  39.8641°N, 104.821°W
Report Text: KDEN 260653Z 23010KT 10SM CLR 13/M05 A2996 RMK AO2 SLP073 T01331050 402670067
Loading
Personal Weather Stations






























Interactive Weather Map
Tropical Storm Tracking
New forecast layout! Learn more

10-Day Weather Forecast

Advertisements
Track Severe Weather on mobile